sensor_id;sensor_type;location;lat;lon;timestamp;P1;durP1;ratioP1;P2;durP2;ratioP2
55993;SDS011;67425;52.126;20.638;2023-01-31T00:01:08;7.53;;;4.05;;
55993;SDS011;67425;52.126;20.638;2023-01-31T00:03:45;9.65;;;5.55;;
55993;SDS011;67425;52.126;20.638;2023-01-31T00:06:13;6.97;;;5.22;;
55993;SDS011;67425;52.126;20.638;2023-01-31T00:08:44;10.10;;;4.90;;
55993;SDS011;67425;52.126;20.638;2023-01-31T00:11:11;14.30;;;5.82;;
55993;SDS011;67425;52.126;20.638;2023-01-31T00:13:37;19.25;;;5.22;;
55993;SDS011;67425;52.126;20.638;2023-01-31T00:16:02;11.68;;;4.32;;
55993;SDS011;67425;52.126;20.638;2023-01-31T00:18:28;7.97;;;4.60;;
55993;SDS011;67425;52.126;20.638;2023-01-31T00:20:54;12.60;;;4.10;;
55993;SDS011;67425;52.126;20.638;2023-01-31T00:23:19;8.93;;;4.03;;
55993;SDS011;67425;52.126;20.638;2023-01-31T00:25:45;8.07;;;3.90;;
55993;SDS011;67425;52.126;20.638;2023-01-31T00:28:10;10.70;;;3.70;;
55993;SDS011;67425;52.126;20.638;2023-01-31T00:30:35;7.15;;;4.32;;
55993;SDS011;67425;52.126;20.638;2023-01-31T00:33:01;13.80;;;5.13;;
55993;SDS011;67425;52.126;20.638;2023-01-31T00:35:26;5.95;;;2.97;;
55993;SDS011;67425;52.126;20.638;2023-01-31T00:37:52;12.82;;;4.85;;
55993;SDS011;67425;52.126;20.638;2023-01-31T00:40:17;11.52;;;4.53;;
55993;SDS011;67425;52.126;20.638;2023-01-31T00:42:43;6.80;;;3.53;;
55993;SDS011;67425;52.126;20.638;2023-01-31T00:45:08;12.63;;;3.85;;
55993;SDS011;67425;52.126;20.638;2023-01-31T00:47:34;11.80;;;3.85;;
55993;SDS011;67425;52.126;20.638;2023-01-31T00:49:59;4.20;;;2.53;;
55993;SDS011;67425;52.126;20.638;2023-01-31T00:52:25;7.85;;;4.20;;
55993;SDS011;67425;52.126;20.638;2023-01-31T00:54:51;11.27;;;3.55;;
55993;SDS011;67425;52.126;20.638;2023-01-31T00:57:16;12.05;;;4.68;;
55993;SDS011;67425;52.126;20.638;2023-01-31T00:59:41;11.68;;;3.60;;
55993;SDS011;67425;52.126;20.638;2023-01-31T01:02:07;7.90;;;3.22;;
55993;SDS011;67425;52.126;20.638;2023-01-31T01:04:32;13.10;;;4.32;;
55993;SDS011;67425;52.126;20.638;2023-01-31T01:06:57;9.25;;;3.05;;
55993;SDS011;67425;52.126;20.638;2023-01-31T01:09:23;11.65;;;3.90;;
55993;SDS011;67425;52.126;20.638;2023-01-31T01:11:49;6.72;;;3.20;;
55993;SDS011;67425;52.126;20.638;2023-01-31T01:14:15;12.27;;;4.03;;
55993;SDS011;67425;52.126;20.638;2023-01-31T01:16:40;10.35;;;3.60;;
55993;SDS011;67425;52.126;20.638;2023-01-31T01:19:08;8.60;;;3.63;;
55993;SDS011;67425;52.126;20.638;2023-01-31T01:21:36;4.88;;;3.30;;
55993;SDS011;67425;52.126;20.638;2023-01-31T01:24:03;7.38;;;3.25;;
55993;SDS011;67425;52.126;20.638;2023-01-31T01:26:30;15.65;;;2.47;;
55993;SDS011;67425;52.126;20.638;2023-01-31T01:28:57;15.82;;;3.78;;
55993;SDS011;67425;52.126;20.638;2023-01-31T01:31:24;7.45;;;3.22;;
55993;SDS011;67425;52.126;20.638;2023-01-31T01:33:54;11.15;;;4.32;;
55993;SDS011;67425;52.126;20.638;2023-01-31T01:36:22;7.55;;;3.53;;
55993;SDS011;67425;52.126;20.638;2023-01-31T01:38:48;8.27;;;3.88;;
55993;SDS011;67425;52.126;20.638;2023-01-31T01:41:13;14.43;;;3.60;;
55993;SDS011;67425;52.126;20.638;2023-01-31T01:46:24;13.25;;;5.13;;
55993;SDS011;67425;52.126;20.638;2023-01-31T01:48:55;6.63;;;3.03;;
55993;SDS011;67425;52.126;20.638;2023-01-31T01:51:25;14.75;;;3.58;;
55993;SDS011;67425;52.126;20.638;2023-01-31T01:53:54;10.25;;;2.97;;
55993;SDS011;67425;52.126;20.638;2023-01-31T01:56:27;8.88;;;2.85;;
55993;SDS011;67425;52.126;20.638;2023-01-31T01:59:00;10.60;;;3.40;;
55993;SDS011;67425;52.126;20.638;2023-01-31T02:01:32;19.25;;;4.78;;
55993;SDS011;67425;52.126;20.638;2023-01-31T02:04:01;10.77;;;3.17;;
55993;SDS011;67425;52.126;20.638;2023-01-31T02:06:29;6.32;;;2.58;;
55993;SDS011;67425;52.126;20.638;2023-01-31T02:08:55;6.45;;;2.45;;
55993;SDS011;67425;52.126;20.638;2023-01-31T02:11:25;7.97;;;3.08;;
55993;SDS011;67425;52.126;20.638;2023-01-31T02:14:04;4.25;;;3.00;;
55993;SDS011;67425;52.126;20.638;2023-01-31T02:16:31;13.10;;;3.85;;
55993;SDS011;67425;52.126;20.638;2023-01-31T02:18:57;9.43;;;4.45;;
55993;SDS011;67425;52.126;20.638;2023-01-31T02:35:37;6.10;;;2.33;;
55993;SDS011;67425;52.126;20.638;2023-01-31T02:43:53;6.47;;;2.50;;
55993;SDS011;67425;52.126;20.638;2023-01-31T02:52:02;7.55;;;2.35;;
55993;SDS011;67425;52.126;20.638;2023-01-31T02:54:41;10.80;;;3.30;;
55993;SDS011;67425;52.126;20.638;2023-01-31T02:57:31;8.40;;;3.13;;
55993;SDS011;67425;52.126;20.638;2023-01-31T02:59:57;8.25;;;3.00;;
55993;SDS011;67425;52.126;20.638;2023-01-31T03:02:22;14.68;;;2.92;;
55993;SDS011;67425;52.126;20.638;2023-01-31T03:04:49;18.52;;;4.53;;
55993;SDS011;67425;52.126;20.638;2023-01-31T03:07:24;31.95;;;8.40;;
55993;SDS011;67425;52.126;20.638;2023-01-31T03:12:40;26.70;;;3.83;;
55993;SDS011;67425;52.126;20.638;2023-01-31T03:18:14;15.05;;;3.40;;
55993;SDS011;67425;52.126;20.638;2023-01-31T03:20:52;13.25;;;2.15;;
55993;SDS011;67425;52.126;20.638;2023-01-31T03:23:23;12.52;;;2.13;;
55993;SDS011;67425;52.126;20.638;2023-01-31T03:25:53;14.82;;;3.00;;
55993;SDS011;67425;52.126;20.638;2023-01-31T03:28:23;13.90;;;3.05;;
55993;SDS011;67425;52.126;20.638;2023-01-31T03:33:47;13.35;;;3.45;;
55993;SDS011;67425;52.126;20.638;2023-01-31T03:36:30;19.70;;;3.65;;
55993;SDS011;67425;52.126;20.638;2023-01-31T03:41:49;11.80;;;3.05;;
55993;SDS011;67425;52.126;20.638;2023-01-31T03:44:34;7.90;;;2.03;;
55993;SDS011;67425;52.126;20.638;2023-01-31T03:47:38;13.98;;;2.03;;
55993;SDS011;67425;52.126;20.638;2023-01-31T03:50:04;14.65;;;3.67;;
55993;SDS011;67425;52.126;20.638;2023-01-31T03:52:35;14.38;;;3.22;;
55993;SDS011;67425;52.126;20.638;2023-01-31T03:55:15;16.50;;;3.58;;
55993;SDS011;67425;52.126;20.638;2023-01-31T03:57:43;11.02;;;4.47;;
55993;SDS011;67425;52.126;20.638;2023-01-31T04:00:14;16.38;;;3.63;;
55993;SDS011;67425;52.126;20.638;2023-01-31T04:02:43;17.17;;;3.08;;
55993;SDS011;67425;52.126;20.638;2023-01-31T04:07:35;23.10;;;3.35;;
55993;SDS011;67425;52.126;20.638;2023-01-31T04:10:05;18.10;;;2.83;;
55993;SDS011;67425;52.126;20.638;2023-01-31T04:12:36;9.30;;;2.72;;
55993;SDS011;67425;52.126;20.638;2023-01-31T04:15:02;15.52;;;2.60;;
55993;SDS011;67425;52.126;20.638;2023-01-31T04:17:29;19.40;;;2.55;;
55993;SDS011;67425;52.126;20.638;2023-01-31T04:19:54;33.20;;;7.10;;
55993;SDS011;67425;52.126;20.638;2023-01-31T04:22:20;14.43;;;3.78;;
55993;SDS011;67425;52.126;20.638;2023-01-31T04:24:45;9.98;;;2.60;;
55993;SDS011;67425;52.126;20.638;2023-01-31T04:27:11;19.65;;;3.05;;
55993;SDS011;67425;52.126;20.638;2023-01-31T04:29:36;9.88;;;2.45;;
55993;SDS011;67425;52.126;20.638;2023-01-31T04:32:01;9.18;;;2.53;;
55993;SDS011;67425;52.126;20.638;2023-01-31T04:34:27;12.18;;;2.10;;
55993;SDS011;67425;52.126;20.638;2023-01-31T04:36:52;12.80;;;2.13;;
55993;SDS011;67425;52.126;20.638;2023-01-31T04:39:18;8.60;;;1.92;;
55993;SDS011;67425;52.126;20.638;2023-01-31T04:41:43;6.15;;;1.50;;
55993;SDS011;67425;52.126;20.638;2023-01-31T04:44:08;14.60;;;3.05;;
55993;SDS011;67425;52.126;20.638;2023-01-31T04:46:34;13.70;;;2.60;;
55993;SDS011;67425;52.126;20.638;2023-01-31T04:48:59;17.85;;;2.78;;
55993;SDS011;67425;52.126;20.638;2023-01-31T04:51:24;15.13;;;2.35;;
55993;SDS011;67425;52.126;20.638;2023-01-31T04:53:50;14.02;;;4.13;;
55993;SDS011;67425;52.126;20.638;2023-01-31T04:56:15;12.25;;;2.80;;
55993;SDS011;67425;52.126;20.638;2023-01-31T04:58:40;25.98;;;3.13;;
55993;SDS011;67425;52.126;20.638;2023-01-31T05:01:07;22.30;;;3.55;;
55993;SDS011;67425;52.126;20.638;2023-01-31T05:03:33;18.95;;;2.78;;
55993;SDS011;67425;52.126;20.638;2023-01-31T05:05:58;13.48;;;2.90;;
55993;SDS011;67425;52.126;20.638;2023-01-31T05:08:24;22.50;;;3.15;;
55993;SDS011;67425;52.126;20.638;2023-01-31T05:10:55;15.98;;;4.45;;
55993;SDS011;67425;52.126;20.638;2023-01-31T05:13:21;12.27;;;2.47;;
55993;SDS011;67425;52.126;20.638;2023-01-31T05:15:48;14.82;;;2.28;;
55993;SDS011;67425;52.126;20.638;2023-01-31T05:18:13;14.15;;;2.85;;
55993;SDS011;67425;52.126;20.638;2023-01-31T05:20:38;17.25;;;2.67;;
55993;SDS011;67425;52.126;20.638;2023-01-31T05:23:05;13.00;;;2.75;;
55993;SDS011;67425;52.126;20.638;2023-01-31T05:25:31;17.02;;;2.75;;
55993;SDS011;67425;52.126;20.638;2023-01-31T05:27:57;7.32;;;2.10;;
55993;SDS011;67425;52.126;20.638;2023-01-31T05:30:22;13.43;;;2.00;;
55993;SDS011;67425;52.126;20.638;2023-01-31T05:32:48;15.60;;;2.25;;
55993;SDS011;67425;52.126;20.638;2023-01-31T05:35:15;14.73;;;2.72;;
55993;SDS011;67425;52.126;20.638;2023-01-31T05:37:41;15.00;;;3.72;;
55993;SDS011;67425;52.126;20.638;2023-01-31T05:40:14;11.57;;;3.05;;
55993;SDS011;67425;52.126;20.638;2023-01-31T05:42:41;11.82;;;2.30;;
55993;SDS011;67425;52.126;20.638;2023-01-31T05:45:07;15.05;;;3.42;;
55993;SDS011;67425;52.126;20.638;2023-01-31T05:47:34;14.07;;;3.58;;
55993;SDS011;67425;52.126;20.638;2023-01-31T05:50:00;20.17;;;4.20;;
55993;SDS011;67425;52.126;20.638;2023-01-31T05:52:25;9.73;;;2.05;;
55993;SDS011;67425;52.126;20.638;2023-01-31T05:54:51;15.35;;;2.28;;
55993;SDS011;67425;52.126;20.638;2023-01-31T05:57:16;12.80;;;2.38;;
55993;SDS011;67425;52.126;20.638;2023-01-31T05:59:42;20.90;;;2.78;;
55993;SDS011;67425;52.126;20.638;2023-01-31T06:02:07;6.88;;;1.30;;
55993;SDS011;67425;52.126;20.638;2023-01-31T06:04:35;23.95;;;4.93;;
55993;SDS011;67425;52.126;20.638;2023-01-31T06:07:01;8.52;;;2.20;;
55993;SDS011;67425;52.126;20.638;2023-01-31T06:09:26;14.75;;;2.38;;
55993;SDS011;67425;52.126;20.638;2023-01-31T06:11:51;11.00;;;3.45;;
55993;SDS011;67425;52.126;20.638;2023-01-31T06:14:17;12.82;;;2.53;;
55993;SDS011;67425;52.126;20.638;2023-01-31T06:16:42;6.18;;;2.05;;
55993;SDS011;67425;52.126;20.638;2023-01-31T06:19:08;12.27;;;2.53;;
55993;SDS011;67425;52.126;20.638;2023-01-31T06:21:33;10.73;;;2.08;;
55993;SDS011;67425;52.126;20.638;2023-01-31T06:23:59;14.50;;;3.05;;
55993;SDS011;67425;52.126;20.638;2023-01-31T06:26:24;16.88;;;3.45;;
55993;SDS011;67425;52.126;20.638;2023-01-31T06:28:49;5.07;;;1.75;;
55993;SDS011;67425;52.126;20.638;2023-01-31T06:31:15;23.42;;;2.95;;
55993;SDS011;67425;52.126;20.638;2023-01-31T06:33:40;21.02;;;3.10;;
55993;SDS011;67425;52.126;20.638;2023-01-31T06:36:06;18.65;;;2.85;;
55993;SDS011;67425;52.126;20.638;2023-01-31T06:38:32;12.80;;;2.50;;
55993;SDS011;67425;52.126;20.638;2023-01-31T06:40:57;18.40;;;4.55;;
55993;SDS011;67425;52.126;20.638;2023-01-31T06:43:23;7.85;;;2.13;;
55993;SDS011;67425;52.126;20.638;2023-01-31T06:45:48;20.15;;;3.72;;
55993;SDS011;67425;52.126;20.638;2023-01-31T06:48:13;15.13;;;3.60;;
55993;SDS011;67425;52.126;20.638;2023-01-31T06:50:39;17.23;;;3.35;;
55993;SDS011;67425;52.126;20.638;2023-01-31T06:53:05;19.48;;;3.28;;
55993;SDS011;67425;52.126;20.638;2023-01-31T06:55:30;9.15;;;2.83;;
55993;SDS011;67425;52.126;20.638;2023-01-31T06:57:55;19.55;;;4.10;;
55993;SDS011;67425;52.126;20.638;2023-01-31T07:00:21;10.82;;;2.88;;
55993;SDS011;67425;52.126;20.638;2023-01-31T07:02:48;9.98;;;3.00;;
55993;SDS011;67425;52.126;20.638;2023-01-31T07:05:14;15.52;;;3.05;;
55993;SDS011;67425;52.126;20.638;2023-01-31T07:07:39;22.23;;;3.92;;
55993;SDS011;67425;52.126;20.638;2023-01-31T07:10:05;14.18;;;2.80;;
55993;SDS011;67425;52.126;20.638;2023-01-31T07:12:31;14.82;;;3.30;;
55993;SDS011;67425;52.126;20.638;2023-01-31T07:14:56;10.43;;;3.25;;
55993;SDS011;67425;52.126;20.638;2023-01-31T07:17:22;9.00;;;2.95;;
55993;SDS011;67425;52.126;20.638;2023-01-31T07:19:47;10.40;;;2.97;;
55993;SDS011;67425;52.126;20.638;2023-01-31T07:22:13;10.63;;;2.95;;
55993;SDS011;67425;52.126;20.638;2023-01-31T07:24:38;18.40;;;2.75;;
55993;SDS011;67425;52.126;20.638;2023-01-31T07:27:03;15.90;;;3.42;;
55993;SDS011;67425;52.126;20.638;2023-01-31T07:29:29;23.08;;;2.35;;
55993;SDS011;67425;52.126;20.638;2023-01-31T07:31:54;9.50;;;2.75;;
55993;SDS011;67425;52.126;20.638;2023-01-31T07:34:20;20.45;;;2.42;;
55993;SDS011;67425;52.126;20.638;2023-01-31T07:36:47;15.63;;;3.28;;
55993;SDS011;67425;52.126;20.638;2023-01-31T07:39:13;8.98;;;3.53;;
55993;SDS011;67425;52.126;20.638;2023-01-31T07:41:38;19.55;;;2.45;;
55993;SDS011;67425;52.126;20.638;2023-01-31T07:44:04;18.05;;;3.70;;
55993;SDS011;67425;52.126;20.638;2023-01-31T07:46:32;18.58;;;4.32;;
55993;SDS011;67425;52.126;20.638;2023-01-31T07:48:58;14.20;;;3.67;;
55993;SDS011;67425;52.126;20.638;2023-01-31T07:51:23;13.63;;;3.38;;
55993;SDS011;67425;52.126;20.638;2023-01-31T07:53:49;13.93;;;3.47;;
55993;SDS011;67425;52.126;20.638;2023-01-31T07:56:15;19.02;;;3.50;;
55993;SDS011;67425;52.126;20.638;2023-01-31T07:58:43;21.67;;;3.17;;
55993;SDS011;67425;52.126;20.638;2023-01-31T08:01:14;11.68;;;2.28;;
55993;SDS011;67425;52.126;20.638;2023-01-31T08:04:03;25.65;;;3.78;;
55993;SDS011;67425;52.126;20.638;2023-01-31T08:06:29;7.35;;;2.05;;
55993;SDS011;67425;52.126;20.638;2023-01-31T08:08:56;19.35;;;3.55;;
55993;SDS011;67425;52.126;20.638;2023-01-31T08:11:21;13.32;;;2.13;;
55993;SDS011;67425;52.126;20.638;2023-01-31T08:13:47;10.13;;;2.20;;
55993;SDS011;67425;52.126;20.638;2023-01-31T08:16:12;21.13;;;3.83;;
55993;SDS011;67425;52.126;20.638;2023-01-31T08:18:38;17.77;;;1.92;;
55993;SDS011;67425;52.126;20.638;2023-01-31T08:21:04;15.30;;;4.05;;
55993;SDS011;67425;52.126;20.638;2023-01-31T08:23:30;8.10;;;2.92;;
55993;SDS011;67425;52.126;20.638;2023-01-31T08:26:00;11.60;;;2.10;;
55993;SDS011;67425;52.126;20.638;2023-01-31T08:28:37;22.33;;;3.20;;
55993;SDS011;67425;52.126;20.638;2023-01-31T08:31:04;13.95;;;3.25;;
55993;SDS011;67425;52.126;20.638;2023-01-31T08:33:30;10.63;;;2.08;;
55993;SDS011;67425;52.126;20.638;2023-01-31T08:35:55;12.73;;;2.65;;
55993;SDS011;67425;52.126;20.638;2023-01-31T08:38:21;3.85;;;1.25;;
55993;SDS011;67425;52.126;20.638;2023-01-31T08:40:47;7.15;;;2.25;;
55993;SDS011;67425;52.126;20.638;2023-01-31T08:43:14;14.35;;;1.67;;
55993;SDS011;67425;52.126;20.638;2023-01-31T08:45:39;10.63;;;3.63;;
55993;SDS011;67425;52.126;20.638;2023-01-31T08:48:05;10.32;;;2.10;;
55993;SDS011;67425;52.126;20.638;2023-01-31T08:50:31;14.73;;;2.15;;
55993;SDS011;67425;52.126;20.638;2023-01-31T08:53:03;8.18;;;2.10;;
55993;SDS011;67425;52.126;20.638;2023-01-31T08:55:29;14.15;;;3.05;;
55993;SDS011;67425;52.126;20.638;2023-01-31T08:57:55;14.05;;;3.85;;
55993;SDS011;67425;52.126;20.638;2023-01-31T09:00:21;8.15;;;3.92;;
55993;SDS011;67425;52.126;20.638;2023-01-31T09:02:51;18.15;;;3.05;;
55993;SDS011;67425;52.126;20.638;2023-01-31T09:05:17;7.85;;;2.88;;
55993;SDS011;67425;52.126;20.638;2023-01-31T09:07:42;19.60;;;3.25;;
55993;SDS011;67425;52.126;20.638;2023-01-31T09:10:07;12.80;;;2.47;;
55993;SDS011;67425;52.126;20.638;2023-01-31T09:12:33;16.15;;;2.78;;
55993;SDS011;67425;52.126;20.638;2023-01-31T09:14:59;12.80;;;2.88;;
55993;SDS011;67425;52.126;20.638;2023-01-31T09:17:25;21.23;;;2.38;;
55993;SDS011;67425;52.126;20.638;2023-01-31T09:19:50;10.98;;;2.78;;
55993;SDS011;67425;52.126;20.638;2023-01-31T09:22:15;18.80;;;2.70;;
55993;SDS011;67425;52.126;20.638;2023-01-31T09:24:41;12.80;;;2.80;;
55993;SDS011;67425;52.126;20.638;2023-01-31T09:27:06;10.82;;;2.53;;
55993;SDS011;67425;52.126;20.638;2023-01-31T09:29:32;5.25;;;2.60;;
55993;SDS011;67425;52.126;20.638;2023-01-31T09:31:57;8.75;;;2.45;;
55993;SDS011;67425;52.126;20.638;2023-01-31T09:34:22;14.50;;;2.40;;
55993;SDS011;67425;52.126;20.638;2023-01-31T09:36:48;6.88;;;2.25;;
55993;SDS011;67425;52.126;20.638;2023-01-31T09:39:13;8.88;;;2.78;;
55993;SDS011;67425;52.126;20.638;2023-01-31T09:41:43;17.50;;;3.15;;
55993;SDS011;67425;52.126;20.638;2023-01-31T09:46:42;7.30;;;2.13;;
55993;SDS011;67425;52.126;20.638;2023-01-31T09:49:14;11.02;;;2.33;;
55993;SDS011;67425;52.126;20.638;2023-01-31T09:54:20;13.43;;;2.65;;
55993;SDS011;67425;52.126;20.638;2023-01-31T10:02:21;9.07;;;2.00;;
55993;SDS011;67425;52.126;20.638;2023-01-31T10:12:53;7.38;;;2.22;;
55993;SDS011;67425;52.126;20.638;2023-01-31T10:15:28;10.48;;;1.85;;
55993;SDS011;67425;52.126;20.638;2023-01-31T10:20:46;8.88;;;2.33;;
55993;SDS011;67425;52.126;20.638;2023-01-31T10:23:17;9.90;;;2.22;;
55993;SDS011;67425;52.126;20.638;2023-01-31T10:28:17;7.28;;;1.33;;
55993;SDS011;67425;52.126;20.638;2023-01-31T10:30:55;15.45;;;2.83;;
55993;SDS011;67425;52.126;20.638;2023-01-31T10:36:00;10.73;;;2.55;;
55993;SDS011;67425;52.126;20.638;2023-01-31T10:38:31;5.68;;;2.53;;
55993;SDS011;67425;52.126;20.638;2023-01-31T10:41:10;12.60;;;1.98;;
55993;SDS011;67425;52.126;20.638;2023-01-31T10:43:51;14.32;;;2.25;;
55993;SDS011;67425;52.126;20.638;2023-01-31T10:46:23;22.25;;;7.15;;
55993;SDS011;67425;52.126;20.638;2023-01-31T10:48:48;26.23;;;8.00;;
55993;SDS011;67425;52.126;20.638;2023-01-31T10:51:17;22.10;;;7.97;;
55993;SDS011;67425;52.126;20.638;2023-01-31T10:56:56;24.98;;;9.27;;
55993;SDS011;67425;52.126;20.638;2023-01-31T10:59:27;17.80;;;5.93;;
55993;SDS011;67425;52.126;20.638;2023-01-31T11:02:01;53.00;;;15.65;;
55993;SDS011;67425;52.126;20.638;2023-01-31T11:04:34;26.42;;;7.95;;
55993;SDS011;67425;52.126;20.638;2023-01-31T11:07:04;24.35;;;8.68;;
55993;SDS011;67425;52.126;20.638;2023-01-31T11:09:35;14.05;;;5.85;;
55993;SDS011;67425;52.126;20.638;2023-01-31T11:12:04;24.73;;;3.40;;
55993;SDS011;67425;52.126;20.638;2023-01-31T11:14:31;14.40;;;4.22;;
55993;SDS011;67425;52.126;20.638;2023-01-31T11:16:58;24.85;;;9.65;;
55993;SDS011;67425;52.126;20.638;2023-01-31T11:19:33;64.18;;;22.60;;
55993;SDS011;67425;52.126;20.638;2023-01-31T11:22:03;23.27;;;7.07;;
55993;SDS011;67425;52.126;20.638;2023-01-31T11:24:31;13.70;;;7.22;;
55993;SDS011;67425;52.126;20.638;2023-01-31T11:27:02;18.33;;;7.10;;
55993;SDS011;67425;52.126;20.638;2023-01-31T11:29:37;16.92;;;6.38;;
55993;SDS011;67425;52.126;20.638;2023-01-31T11:32:49;20.95;;;7.63;;
55993;SDS011;67425;52.126;20.638;2023-01-31T11:35:00;16.00;;;5.65;;
55993;SDS011;67425;52.126;20.638;2023-01-31T11:37:30;22.50;;;9.85;;
55993;SDS011;67425;52.126;20.638;2023-01-31T11:40:01;12.13;;;4.10;;
55993;SDS011;67425;52.126;20.638;2023-01-31T11:42:52;14.77;;;3.95;;
55993;SDS011;67425;52.126;20.638;2023-01-31T11:45:20;12.73;;;3.83;;
55993;SDS011;67425;52.126;20.638;2023-01-31T11:47:51;13.63;;;4.82;;
55993;SDS011;67425;52.126;20.638;2023-01-31T11:50:21;6.95;;;3.55;;
55993;SDS011;67425;52.126;20.638;2023-01-31T11:53:20;7.40;;;1.88;;
55993;SDS011;67425;52.126;20.638;2023-01-31T11:55:48;12.48;;;3.08;;
55993;SDS011;67425;52.126;20.638;2023-01-31T11:58:31;12.73;;;4.30;;
55993;SDS011;67425;52.126;20.638;2023-01-31T12:01:01;14.23;;;2.97;;
55993;SDS011;67425;52.126;20.638;2023-01-31T12:03:32;17.48;;;4.07;;
55993;SDS011;67425;52.126;20.638;2023-01-31T12:06:00;14.32;;;2.90;;
55993;SDS011;67425;52.126;20.638;2023-01-31T12:08:28;7.93;;;2.10;;
55993;SDS011;67425;52.126;20.638;2023-01-31T12:11:02;4.53;;;2.25;;
55993;SDS011;67425;52.126;20.638;2023-01-31T12:13:44;11.13;;;3.58;;
55993;SDS011;67425;52.126;20.638;2023-01-31T12:16:18;9.85;;;3.20;;
55993;SDS011;67425;52.126;20.638;2023-01-31T12:18:50;9.30;;;2.80;;
55993;SDS011;67425;52.126;20.638;2023-01-31T12:30:09;3.13;;;1.67;;
55993;SDS011;67425;52.126;20.638;2023-01-31T12:40:51;4.72;;;2.78;;
55993;SDS011;67425;52.126;20.638;2023-01-31T12:46:49;14.20;;;2.88;;
55993;SDS011;67425;52.126;20.638;2023-01-31T12:49:03;2.70;;;1.27;;
55993;SDS011;67425;52.126;20.638;2023-01-31T12:51:45;7.60;;;2.15;;
55993;SDS011;67425;52.126;20.638;2023-01-31T13:00:18;3.38;;;1.75;;
55993;SDS011;67425;52.126;20.638;2023-01-31T13:06:13;7.78;;;2.45;;
55993;SDS011;67425;52.126;20.638;2023-01-31T13:08:39;15.85;;;6.38;;
55993;SDS011;67425;52.126;20.638;2023-01-31T13:13:44;6.22;;;3.53;;
55993;SDS011;67425;52.126;20.638;2023-01-31T13:16:19;9.98;;;4.15;;
55993;SDS011;67425;52.126;20.638;2023-01-31T13:18:49;11.98;;;3.67;;
55993;SDS011;67425;52.126;20.638;2023-01-31T13:21:17;7.78;;;2.78;;
55993;SDS011;67425;52.126;20.638;2023-01-31T13:23:54;16.67;;;4.60;;
55993;SDS011;67425;52.126;20.638;2023-01-31T13:29:15;8.45;;;3.13;;
55993;SDS011;67425;52.126;20.638;2023-01-31T13:31:48;11.33;;;3.90;;
55993;SDS011;67425;52.126;20.638;2023-01-31T13:34:39;5.30;;;2.97;;
55993;SDS011;67425;52.126;20.638;2023-01-31T13:37:15;8.02;;;3.75;;
55993;SDS011;67425;52.126;20.638;2023-01-31T13:40:49;8.20;;;3.72;;
55993;SDS011;67425;52.126;20.638;2023-01-31T13:42:48;15.23;;;3.85;;
55993;SDS011;67425;52.126;20.638;2023-01-31T13:45:48;16.63;;;3.97;;
55993;SDS011;67425;52.126;20.638;2023-01-31T13:50:51;12.15;;;3.30;;
55993;SDS011;67425;52.126;20.638;2023-01-31T13:53:23;6.18;;;2.60;;
55993;SDS011;67425;52.126;20.638;2023-01-31T13:56:01;11.85;;;4.50;;
55993;SDS011;67425;52.126;20.638;2023-01-31T13:58:34;11.38;;;3.50;;
55993;SDS011;67425;52.126;20.638;2023-01-31T14:01:04;14.02;;;3.78;;
55993;SDS011;67425;52.126;20.638;2023-01-31T14:11:57;11.48;;;3.17;;
55993;SDS011;67425;52.126;20.638;2023-01-31T14:17:01;6.45;;;2.67;;
55993;SDS011;67425;52.126;20.638;2023-01-31T14:22:15;6.43;;;2.50;;
55993;SDS011;67425;52.126;20.638;2023-01-31T14:27:27;9.23;;;2.53;;
55993;SDS011;67425;52.126;20.638;2023-01-31T15:04:56;12.10;;;3.15;;
55993;SDS011;67425;52.126;20.638;2023-01-31T15:07:26;24.35;;;4.68;;
55993;SDS011;67425;52.126;20.638;2023-01-31T15:09:52;19.70;;;4.25;;
55993;SDS011;67425;52.126;20.638;2023-01-31T15:15:19;14.27;;;3.78;;
55993;SDS011;67425;52.126;20.638;2023-01-31T15:17:58;14.20;;;3.83;;
55993;SDS011;67425;52.126;20.638;2023-01-31T15:20:36;16.48;;;4.57;;
55993;SDS011;67425;52.126;20.638;2023-01-31T15:23:10;22.95;;;5.43;;
55993;SDS011;67425;52.126;20.638;2023-01-31T15:25:42;23.98;;;5.28;;
55993;SDS011;67425;52.126;20.638;2023-01-31T15:28:14;16.33;;;4.32;;
55993;SDS011;67425;52.126;20.638;2023-01-31T15:30:41;19.30;;;5.03;;
55993;SDS011;67425;52.126;20.638;2023-01-31T15:36:23;16.88;;;4.88;;
55993;SDS011;67425;52.126;20.638;2023-01-31T15:38:53;19.00;;;5.35;;
55993;SDS011;67425;52.126;20.638;2023-01-31T15:44:10;18.63;;;5.05;;
55993;SDS011;67425;52.126;20.638;2023-01-31T15:46:51;19.85;;;5.57;;
55993;SDS011;67425;52.126;20.638;2023-01-31T15:49:21;16.90;;;5.07;;
55993;SDS011;67425;52.126;20.638;2023-01-31T15:52:01;21.60;;;6.07;;
55993;SDS011;67425;52.126;20.638;2023-01-31T15:57:17;13.07;;;5.50;;
55993;SDS011;67425;52.126;20.638;2023-01-31T15:59:44;14.07;;;4.20;;
55993;SDS011;67425;52.126;20.638;2023-01-31T16:02:17;15.80;;;5.35;;
55993;SDS011;67425;52.126;20.638;2023-01-31T16:04:50;19.13;;;5.30;;
55993;SDS011;67425;52.126;20.638;2023-01-31T16:07:17;15.75;;;3.55;;
55993;SDS011;67425;52.126;20.638;2023-01-31T16:09:45;16.10;;;4.57;;
55993;SDS011;67425;52.126;20.638;2023-01-31T16:12:11;14.27;;;4.32;;
55993;SDS011;67425;52.126;20.638;2023-01-31T16:14:38;13.82;;;4.45;;
55993;SDS011;67425;52.126;20.638;2023-01-31T16:17:09;17.80;;;4.32;;
55993;SDS011;67425;52.126;20.638;2023-01-31T16:19:35;16.25;;;5.18;;
55993;SDS011;67425;52.126;20.638;2023-01-31T16:22:01;20.83;;;6.25;;
55993;SDS011;67425;52.126;20.638;2023-01-31T16:24:28;14.93;;;5.53;;
55993;SDS011;67425;52.126;20.638;2023-01-31T16:29:37;28.90;;;6.95;;
55993;SDS011;67425;52.126;20.638;2023-01-31T16:32:21;27.52;;;7.95;;
55993;SDS011;67425;52.126;20.638;2023-01-31T16:39:52;15.10;;;6.60;;
55993;SDS011;67425;52.126;20.638;2023-01-31T16:42:29;16.42;;;5.25;;
55993;SDS011;67425;52.126;20.638;2023-01-31T16:44:55;26.38;;;6.05;;
55993;SDS011;67425;52.126;20.638;2023-01-31T16:52:42;20.50;;;6.28;;
55993;SDS011;67425;52.126;20.638;2023-01-31T16:55:16;23.92;;;5.65;;
55993;SDS011;67425;52.126;20.638;2023-01-31T16:57:46;21.10;;;6.78;;
55993;SDS011;67425;52.126;20.638;2023-01-31T17:02:52;29.10;;;8.82;;
55993;SDS011;67425;52.126;20.638;2023-01-31T17:05:46;28.45;;;9.63;;
55993;SDS011;67425;52.126;20.638;2023-01-31T17:08:14;29.60;;;9.18;;
55993;SDS011;67425;52.126;20.638;2023-01-31T17:10:41;22.23;;;8.82;;
55993;SDS011;67425;52.126;20.638;2023-01-31T17:13:21;26.15;;;8.73;;
55993;SDS011;67425;52.126;20.638;2023-01-31T17:15:48;25.73;;;9.38;;
55993;SDS011;67425;52.126;20.638;2023-01-31T17:18:14;29.17;;;9.45;;
55993;SDS011;67425;52.126;20.638;2023-01-31T17:20:40;34.33;;;10.25;;
55993;SDS011;67425;52.126;20.638;2023-01-31T17:23:08;30.10;;;9.93;;
55993;SDS011;67425;52.126;20.638;2023-01-31T17:25:34;34.25;;;9.95;;
55993;SDS011;67425;52.126;20.638;2023-01-31T17:28:03;29.77;;;9.75;;
55993;SDS011;67425;52.126;20.638;2023-01-31T17:30:29;32.97;;;9.80;;
55993;SDS011;67425;52.126;20.638;2023-01-31T17:32:58;33.95;;;9.40;;
55993;SDS011;67425;52.126;20.638;2023-01-31T17:37:53;25.10;;;9.18;;
55993;SDS011;67425;52.126;20.638;2023-01-31T17:40:18;24.95;;;7.15;;
55993;SDS011;67425;52.126;20.638;2023-01-31T17:42:44;32.72;;;8.05;;
55993;SDS011;67425;52.126;20.638;2023-01-31T17:45:13;24.08;;;8.57;;
55993;SDS011;67425;52.126;20.638;2023-01-31T17:47:41;36.75;;;8.25;;